Time;durP1;ratioP1;P1;durP2;ratioP2;P2;SDS_P1;SDS_P2;PMS_P1;PMS_P2;Temp;Humidity;BMP_temperature;BMP_pressure;BME280_temperature;BME280_humidity;BME280_pressure;Samples;Min_cycle;Max_cycle;Signal;HPM_P1;HPM_P2
2023/12/03 00:01:34;;;;;;;5.80;3.03;;;1.10;91.40;;;;;;5133360;27;20042;-73
2023/12/03 00:03:59;;;;;;;6.70;3.10;;;1.10;91.40;;;;;;5136534;27;20038;-73
2023/12/03 00:06:25;;;;;;;7.35;3.25;;;1.00;91.30;;;;;;5115438;28;20534;-73
2023/12/03 00:08:51;;;;;;;5.93;2.85;;;1.00;91.40;;;;;;5117903;28;20031;-72
2023/12/03 00:11:17;;;;;;;6.40;2.88;;;1.10;91.40;;;;;;5114564;28;20035;-73
2023/12/03 00:13:43;;;;;;;7.30;2.90;;;1.10;91.40;;;;;;5114217;28;20130;-73
2023/12/03 00:16:09;;;;;;;5.35;2.60;;;1.10;91.40;;;;;;5135603;27;20131;-74
2023/12/03 00:18:35;;;;;;;5.65;2.50;;;1.10;91.40;;;;;;5136150;27;20039;-73
2023/12/03 00:21:00;;;;;;;5.55;2.50;;;1.10;91.50;;;;;;5114172;28;20054;-72
2023/12/03 00:23:26;;;;;;;6.38;2.72;;;1.10;91.50;;;;;;5118524;27;20047;-73
2023/12/03 00:25:52;;;;;;;7.28;2.80;;;1.10;91.50;;;;;;5136135;28;20040;-72
2023/12/03 00:28:17;;;;;;;6.97;3.03;;;1.10;91.50;;;;;;5117177;28;20035;-72
2023/12/03 00:30:43;;;;;;;6.00;2.90;;;1.10;91.50;;;;;;5113824;28;20521;-72
2023/12/03 00:33:09;;;;;;;7.20;3.08;;;1.10;91.50;;;;;;5096912;28;20138;-73
2023/12/03 00:35:35;;;;;;;6.53;3.03;;;1.10;91.50;;;;;;5115493;28;20043;-72
2023/12/03 00:38:00;;;;;;;8.20;3.35;;;1.10;91.50;;;;;;5131403;27;20088;-73
2023/12/03 00:40:26;;;;;;;6.38;2.45;;;1.10;91.50;;;;;;5136373;27;20083;-73
2023/12/03 00:42:54;;;;;;;7.30;2.60;;;1.10;91.50;;;;;;5136340;27;20039;-74
2023/12/03 00:45:23;;;;;;;6.25;2.90;;;1.10;91.60;;;;;;5113785;28;20039;-72
2023/12/03 00:47:48;;;;;;;7.68;3.40;;;1.10;91.60;;;;;;5119041;27;20039;-72
2023/12/03 00:50:14;;;;;;;7.13;3.00;;;1.10;91.60;;;;;;5135516;27;20069;-72
2023/12/03 00:52:40;;;;;;;6.47;2.85;;;1.10;91.60;;;;;;5117158;27;20039;-72
2023/12/03 00:55:06;;;;;;;8.13;3.00;;;1.00;91.60;;;;;;5100593;28;20122;-73
2023/12/03 00:57:32;;;;;;;6.25;2.63;;;1.10;91.60;;;;;;5117522;28;20042;-72
2023/12/03 00:59:58;;;;;;;5.88;2.33;;;1.10;91.60;;;;;;5116923;27;20039;-73
2023/12/03 01:02:24;;;;;;;6.15;2.85;;;1.00;91.60;;;;;;5117115;27;20035;-73
2023/12/03 01:04:50;;;;;;;7.47;2.60;;;1.10;91.60;;;;;;5116432;28;20047;-73
2023/12/03 01:07:16;;;;;;;6.20;2.70;;;1.10;91.60;;;;;;5099805;27;20039;-73
2023/12/03 01:09:42;;;;;;;4.75;2.30;;;1.10;91.70;;;;;;5135111;27;20077;-73
2023/12/03 01:12:07;;;;;;;7.15;3.08;;;1.10;91.70;;;;;;5116648;27;20032;-73
2023/12/03 01:14:33;;;;;;;6.47;2.60;;;1.10;91.70;;;;;;5135122;27;20482;-73
2023/12/03 01:16:59;;;;;;;5.38;2.53;;;1.00;91.70;;;;;;5134916;27;20042;-73
2023/12/03 01:19:25;;;;;;;4.82;2.40;;;1.10;91.70;;;;;;5135126;27;20070;-73
2023/12/03 01:21:51;;;;;;;6.72;2.70;;;1.10;91.70;;;;;;5113213;28;20046;-73
2023/12/03 01:24:16;;;;;;;5.43;2.30;;;1.10;91.70;;;;;;5112889;28;20101;-74
2023/12/03 01:26:42;;;;;;;5.05;2.47;;;1.10;91.70;;;;;;5124955;27;20046;-73
2023/12/03 01:29:08;;;;;;;5.40;2.22;;;1.10;92.00;;;;;;5116570;27;20082;-73
2023/12/03 01:31:33;;;;;;;5.55;2.13;;;1.10;91.80;;;;;;5134636;28;20428;-74
2023/12/03 01:33:59;;;;;;;4.22;1.95;;;1.10;91.80;;;;;;5116298;28;20409;-74
2023/12/03 01:36:25;;;;;;;6.72;2.60;;;1.10;91.80;;;;;;5112934;28;20036;-73
2023/12/03 01:38:51;;;;;;;6.63;2.45;;;1.20;91.80;;;;;;5114106;28;20043;-73
2023/12/03 01:41:16;;;;;;;5.93;2.40;;;1.20;91.80;;;;;;5112819;28;20048;-73
2023/12/03 01:43:51;;;;;;;7.05;2.53;;;1.20;91.80;;;;;;5113485;28;20028;-72
2023/12/03 01:46:18;;;;;;;7.18;2.10;;;1.20;91.80;;;;;;5113169;28;20048;-73
2023/12/03 01:48:44;;;;;;;6.75;2.85;;;1.20;91.80;;;;;;5114429;28;20032;-74
2023/12/03 01:51:11;;;;;;;5.57;2.40;;;1.20;91.80;;;;;;5130333;27;20455;-73
2023/12/03 01:53:38;;;;;;;6.35;2.75;;;1.20;91.80;;;;;;5134762;27;20039;-73
2023/12/03 01:56:05;;;;;;;5.72;2.47;;;1.20;91.80;;;;;;5134559;27;20071;-73
2023/12/03 01:58:32;;;;;;;6.93;3.00;;;1.30;91.80;;;;;;5116275;27;20035;-73
2023/12/03 02:00:58;;;;;;;6.82;2.38;;;1.30;91.80;;;;;;5134236;27;20065;-72
2023/12/03 02:03:24;;;;;;;6.43;2.78;;;1.30;91.80;;;;;;5112380;28;20402;-72
2023/12/03 02:06:05;;;;;;;6.40;2.92;;;1.30;91.90;;;;;;5112831;28;20073;-72
2023/12/03 02:08:32;;;;;;;6.50;2.75;;;1.30;91.90;;;;;;5118380;27;20027;-74
2023/12/03 02:10:59;;;;;;;7.57;2.78;;;1.30;91.80;;;;;;5115966;27;20058;-72
2023/12/03 02:13:28;;;;;;;5.50;2.13;;;1.30;91.80;;;;;;5115872;27;20042;-73
2023/12/03 02:15:53;;;;;;;5.65;2.22;;;1.40;91.90;;;;;;5114868;28;20474;-73
2023/12/03 02:18:19;;;;;;;8.07;2.70;;;1.30;91.90;;;;;;5134283;27;20046;-73
2023/12/03 02:20:45;;;;;;;7.13;2.80;;;1.40;91.90;;;;;;5134056;27;20127;-73
2023/12/03 02:23:11;;;;;;;5.32;2.20;;;1.40;91.90;;;;;;5134300;27;20035;-73
2023/12/03 02:25:37;;;;;;;5.97;2.28;;;1.40;91.90;;;;;;5112033;28;20043;-73
2023/12/03 02:28:03;;;;;;;5.82;2.17;;;1.40;91.90;;;;;;5113997;28;20035;-72
2023/12/03 02:30:29;;;;;;;6.93;2.40;;;1.50;91.90;;;;;;5112043;28;20039;-73
2023/12/03 02:32:54;;;;;;;7.90;2.50;;;1.50;91.90;;;;;;5112067;28;20066;-73
2023/12/03 02:35:20;;;;;;;6.35;2.50;;;1.50;91.90;;;;;;5126102;27;20041;-73
2023/12/03 02:37:45;;;;;;;5.32;2.15;;;1.50;91.90;;;;;;5115510;28;20031;-73
2023/12/03 02:40:11;;;;;;;5.50;2.42;;;1.50;91.90;;;;;;5115389;27;20107;-73
2023/12/03 02:42:37;;;;;;;5.80;2.58;;;1.50;91.90;;;;;;5133460;27;20047;-73
2023/12/03 02:45:03;;;;;;;5.80;2.28;;;1.60;91.90;;;;;;5133721;27;20043;-73
2023/12/03 02:47:29;;;;;;;6.90;2.20;;;1.60;91.90;;;;;;5115334;28;20035;-74
2023/12/03 02:49:54;;;;;;;5.80;2.20;;;1.60;91.90;;;;;;5111674;28;20093;-73
2023/12/03 02:52:20;;;;;;;7.10;2.65;;;1.60;91.90;;;;;;5111818;28;20050;-73
2023/12/03 02:54:46;;;;;;;5.22;2.08;;;1.60;92.00;;;;;;5127067;27;20055;-73
2023/12/03 02:57:11;;;;;;;4.95;2.30;;;1.70;92.00;;;;;;5114994;27;20039;-74
2023/12/03 02:59:37;;;;;;;6.65;2.65;;;1.70;92.00;;;;;;5115281;27;20050;-73
2023/12/03 03:02:03;;;;;;;6.22;2.50;;;1.70;92.00;;;;;;5114804;27;20046;-73
2023/12/03 03:04:29;;;;;;;5.10;2.20;;;1.70;92.00;;;;;;5133015;27;20058;-73
2023/12/03 03:06:54;;;;;;;4.80;2.10;;;1.80;92.00;;;;;;5111400;27;20043;-73
2023/12/03 03:09:20;;;;;;;6.63;2.35;;;1.70;91.90;;;;;;5133445;27;20450;-73
2023/12/03 03:11:46;;;;;;;6.97;2.60;;;1.80;92.00;;;;;;5133601;27;20084;-73
2023/12/03 03:14:11;;;;;;;7.68;3.25;;;1.70;92.00;;;;;;5133123;27;20398;-73
2023/12/03 03:16:37;;;;;;;6.20;2.67;;;1.80;92.00;;;;;;5133031;27;20035;-72
2023/12/03 03:19:05;;;;;;;6.22;2.55;;;1.80;92.00;;;;;;5111315;28;20035;-74
2023/12/03 03:21:36;;;;;;;6.93;3.20;;;1.80;92.00;;;;;;5130256;27;20513;-73
2023/12/03 03:24:02;;;;;;;6.80;2.58;;;1.80;92.00;;;;;;5114633;28;20046;-73
2023/12/03 03:26:28;;;;;;;6.93;3.13;;;1.80;92.00;;;;;;5115105;27;20039;-74
2023/12/03 03:28:53;;;;;;;6.75;2.67;;;1.80;92.00;;;;;;5139746;27;20039;-73
2023/12/03 03:31:19;;;;;;;5.43;2.65;;;1.80;92.00;;;;;;5139645;27;20043;-73
2023/12/03 03:33:45;;;;;;;5.70;2.42;;;1.90;92.00;;;;;;5140322;27;20039;-73
2023/12/03 03:36:13;;;;;;;6.65;2.55;;;1.90;92.00;;;;;;5139521;27;20502;-73
2023/12/03 03:38:39;;;;;;;5.35;2.72;;;1.90;92.00;;;;;;5139917;27;20066;-73
2023/12/03 03:41:05;;;;;;;6.10;2.83;;;1.90;92.00;;;;;;5140222;27;20602;-73
2023/12/03 03:43:31;;;;;;;6.57;2.67;;;1.90;92.00;;;;;;5140099;27;20043;-74
2023/12/03 03:45:58;;;;;;;6.80;2.92;;;1.90;92.00;;;;;;5104262;27;20047;-73
2023/12/03 03:48:24;;;;;;;6.40;3.00;;;1.90;92.00;;;;;;5139560;27;20073;-74
2023/12/03 03:50:50;;;;;;;6.18;2.92;;;1.90;92.00;;;;;;5139945;27;20031;-73
2023/12/03 03:53:15;;;;;;;5.80;2.63;;;1.90;92.00;;;;;;5103994;27;20062;-73
2023/12/03 03:55:41;;;;;;;5.63;2.45;;;1.90;92.00;;;;;;5121344;27;20047;-73
2023/12/03 03:58:07;;;;;;;5.78;2.60;;;2.00;92.00;;;;;;5121291;27;20042;-73
2023/12/03 04:00:32;;;;;;;6.88;2.70;;;2.00;92.00;;;;;;5139520;27;20506;-73
2023/12/03 04:02:58;;;;;;;5.57;2.60;;;1.90;92.00;;;;;;5139356;27;20078;-73
2023/12/03 04:05:24;;;;;;;5.97;2.70;;;2.00;92.00;;;;;;5139184;27;20147;-73
2023/12/03 04:07:50;;;;;;;6.65;2.95;;;2.00;92.30;;;;;;5139602;27;20500;-73
2023/12/03 04:10:15;;;;;;;6.63;3.28;;;2.00;92.00;;;;;;5139149;27;20061;-73
2023/12/03 04:12:41;;;;;;;7.75;3.35;;;2.00;92.00;;;;;;5117638;27;20147;-73
2023/12/03 04:15:08;;;;;;;6.07;2.92;;;2.00;92.00;;;;;;5125912;27;20042;-73
2023/12/03 04:17:33;;;;;;;6.32;2.95;;;2.00;92.00;;;;;;5120798;27;20046;-74
2023/12/03 04:19:59;;;;;;;6.10;3.10;;;2.00;92.00;;;;;;5120771;27;20092;-73
2023/12/03 04:22:25;;;;;;;5.00;2.83;;;2.00;92.00;;;;;;5139270;27;20062;-73
2023/12/03 04:24:50;;;;;;;5.38;2.72;;;2.10;92.10;;;;;;5120578;27;20062;-73
2023/12/03 04:27:17;;;;;;;4.88;2.28;;;2.00;92.00;;;;;;5139060;27;20511;-74
2023/12/03 04:29:42;;;;;;;6.80;3.15;;;2.00;92.00;;;;;;5139049;27;20077;-73
2023/12/03 04:32:09;;;;;;;6.82;3.22;;;2.10;92.10;;;;;;5120452;27;20070;-74
2023/12/03 04:34:34;;;;;;;6.25;2.83;;;2.10;92.10;;;;;;5138833;27;20043;-73
2023/12/03 04:37:00;;;;;;;5.25;2.58;;;2.00;92.00;;;;;;5083290;27;20050;-73
2023/12/03 04:39:26;;;;;;;6.07;2.97;;;2.00;92.00;;;;;;5113801;28;20067;-74
2023/12/03 04:41:52;;;;;;;5.43;2.65;;;1.90;92.00;;;;;;5124457;27;20035;-73
2023/12/03 04:44:18;;;;;;;6.15;2.70;;;2.00;92.10;;;;;;5135153;27;20047;-74
2023/12/03 04:46:43;;;;;;;4.93;2.10;;;2.00;92.10;;;;;;5135404;27;20031;-74
2023/12/03 04:49:09;;;;;;;7.78;3.17;;;2.00;92.10;;;;;;5116994;27;20471;-74
2023/12/03 04:51:35;;;;;;;4.03;2.40;;;2.00;92.10;;;;;;5116762;27;20031;-73
2023/12/03 04:54:01;;;;;;;5.82;2.60;;;2.00;92.10;;;;;;5135443;27;20042;-73
2023/12/03 04:56:27;;;;;;;6.47;2.80;;;2.10;92.10;;;;;;5135414;27;20047;-73
2023/12/03 04:58:52;;;;;;;5.53;2.70;;;2.00;92.10;;;;;;5135580;27;20108;-73
2023/12/03 05:01:18;;;;;;;5.70;2.70;;;2.00;92.10;;;;;;5117633;27;20454;-73
2023/12/03 05:03:45;;;;;;;5.60;2.65;;;2.00;92.10;;;;;;5135352;27;20039;-74
2023/12/03 05:06:11;;;;;;;5.30;2.67;;;2.00;92.10;;;;;;5135734;27;20498;-73
2023/12/03 05:08:37;;;;;;;6.47;2.95;;;2.00;92.10;;;;;;5135130;27;20063;-74
2023/12/03 05:11:05;;;;;;;5.68;2.45;;;2.00;92.10;;;;;;5116817;27;20086;-73
2023/12/03 05:13:33;;;;;;;4.80;2.30;;;2.00;92.10;;;;;;5135379;27;20051;-73
2023/12/03 05:16:01;;;;;;;5.03;2.67;;;2.00;92.10;;;;;;5135302;27;20042;-74
2023/12/03 05:18:27;;;;;;;4.68;2.20;;;2.00;92.10;;;;;;5117058;27;20176;-74
2023/12/03 05:20:52;;;;;;;4.07;2.17;;;2.00;92.10;;;;;;5135329;27;20071;-73
2023/12/03 05:23:18;;;;;;;6.45;2.33;;;2.00;92.10;;;;;;5116788;27;20042;-73
2023/12/03 05:25:44;;;;;;;4.68;2.47;;;2.00;92.10;;;;;;5135214;27;20118;-73
2023/12/03 05:28:10;;;;;;;5.28;2.55;;;2.00;92.10;;;;;;5134882;27;20394;-73
2023/12/03 05:30:36;;;;;;;3.88;2.22;;;2.00;92.10;;;;;;5134971;27;20046;-73
2023/12/03 05:33:02;;;;;;;5.60;2.30;;;2.00;92.10;;;;;;5112861;28;20039;-74
2023/12/03 05:35:30;;;;;;;6.18;2.67;;;2.00;92.10;;;;;;5119110;27;20051;-74
2023/12/03 05:37:56;;;;;;;4.63;2.15;;;2.00;92.10;;;;;;5116327;28;20133;-73
2023/12/03 05:40:22;;;;;;;4.80;2.20;;;1.90;92.10;;;;;;5113066;28;20520;-73
2023/12/03 05:42:47;;;;;;;4.63;2.10;;;1.90;92.10;;;;;;5112888;28;20052;-74
2023/12/03 05:45:13;;;;;;;3.80;2.00;;;1.80;92.10;;;;;;5114056;28;20078;-73
2023/12/03 05:47:40;;;;;;;4.65;2.30;;;1.80;92.10;;;;;;5095846;28;20035;-74
2023/12/03 05:50:06;;;;;;;4.25;2.17;;;1.80;92.10;;;;;;5111792;28;20135;-73
2023/12/03 05:52:32;;;;;;;4.18;1.92;;;1.80;92.20;;;;;;5095581;28;20035;-73
2023/12/03 05:54:58;;;;;;;4.07;2.10;;;1.70;92.20;;;;;;5123000;27;20042;-73
2023/12/03 05:57:23;;;;;;;3.83;2.20;;;1.70;92.30;;;;;;5091184;28;20119;-73
2023/12/03 05:59:51;;;;;;;4.60;2.30;;;1.60;92.30;;;;;;5091637;28;20044;-74
2023/12/03 06:02:17;;;;;;;5.65;2.70;;;1.60;92.30;;;;;;5050748;28;20041;-73
2023/12/03 06:04:42;;;;;;;6.13;2.80;;;1.50;92.30;;;;;;5033275;28;20045;-73
2023/12/03 06:07:09;;;;;;;5.55;2.63;;;1.60;92.40;;;;;;5034606;28;20047;-74
2023/12/03 06:09:34;;;;;;;5.68;2.50;;;1.50;92.40;;;;;;5034317;28;20528;-73
2023/12/03 06:12:00;;;;;;;4.43;2.13;;;1.50;92.40;;;;;;5050960;28;20029;-73
2023/12/03 06:14:26;;;;;;;4.70;2.55;;;1.40;92.40;;;;;;5051628;28;20080;-74
2023/12/03 06:16:52;;;;;;;4.43;2.35;;;1.40;92.40;;;;;;5034682;28;20443;-73
2023/12/03 06:19:18;;;;;;;5.30;2.80;;;1.40;92.40;;;;;;5051064;28;20048;-73
2023/12/03 06:21:44;;;;;;;6.50;3.22;;;1.30;92.40;;;;;;5050871;28;20366;-73
2023/12/03 06:24:09;;;;;;;4.28;2.50;;;1.30;92.40;;;;;;5050807;28;20116;-73
2023/12/03 06:26:35;;;;;;;5.03;2.33;;;1.30;92.50;;;;;;5051342;28;20451;-73
2023/12/03 06:29:01;;;;;;;4.10;1.92;;;1.20;92.40;;;;;;5065036;28;20085;-73
2023/12/03 06:31:27;;;;;;;5.28;2.03;;;1.20;92.50;;;;;;5074011;28;20078;-73
2023/12/03 06:33:53;;;;;;;4.05;2.22;;;1.20;92.50;;;;;;5107833;28;20039;-73
2023/12/03 06:36:19;;;;;;;4.80;2.35;;;1.10;92.50;;;;;;5113652;28;20441;-73
2023/12/03 06:38:44;;;;;;;5.55;2.17;;;1.10;92.50;;;;;;5112035;28;20548;-73
2023/12/03 06:41:10;;;;;;;4.57;2.22;;;1.00;92.50;;;;;;5116879;28;20035;-73
2023/12/03 06:43:36;;;;;;;4.80;2.38;;;1.10;92.50;;;;;;5134190;27;20494;-73
2023/12/03 06:46:02;;;;;;;4.95;2.60;;;1.00;92.60;;;;;;5115854;27;20382;-73
2023/12/03 06:48:28;;;;;;;5.30;2.85;;;1.00;92.90;;;;;;5133670;27;20114;-73
2023/12/03 06:50:54;;;;;;;6.65;2.70;;;1.00;92.90;;;;;;5115341;27;20036;-73
2023/12/03 06:53:20;;;;;;;6.70;3.30;;;0.90;92.60;;;;;;5134020;27;20047;-73
2023/12/03 06:55:46;;;;;;;7.25;3.28;;;0.90;92.60;;;;;;5095117;28;20046;-73
2023/12/03 06:58:12;;;;;;;5.10;2.60;;;0.90;92.50;;;;;;5112067;28;20035;-73
2023/12/03 07:00:37;;;;;;;4.65;2.22;;;0.90;92.60;;;;;;5113116;28;20046;-73
2023/12/03 07:03:03;;;;;;;5.47;2.55;;;0.80;92.50;;;;;;5111352;28;20128;-72
2023/12/03 07:05:29;;;;;;;5.50;2.50;;;0.80;92.60;;;;;;5112850;28;20054;-72
2023/12/03 07:07:55;;;;;;;5.78;2.50;;;0.90;92.60;;;;;;5111611;28;20036;-72
2023/12/03 07:10:20;;;;;;;4.47;1.98;;;0.70;92.60;;;;;;5112956;28;20100;-72
2023/12/03 07:12:46;;;;;;;4.32;1.95;;;0.70;92.60;;;;;;5112215;28;20039;-72
2023/12/03 07:15:12;;;;;;;6.43;3.05;;;0.70;92.60;;;;;;5113181;28;20114;-73
2023/12/03 07:17:40;;;;;;;5.22;2.67;;;0.70;92.70;;;;;;5114291;27;20054;-72
2023/12/03 07:20:07;;;;;;;5.85;2.83;;;0.60;92.70;;;;;;5098016;28;20490;-72
2023/12/03 07:22:33;;;;;;;5.85;2.85;;;0.60;92.70;;;;;;5114813;27;20043;-72
2023/12/03 07:24:58;;;;;;;7.75;2.90;;;0.60;92.70;;;;;;5111267;28;20376;-72
2023/12/03 07:27:24;;;;;;;6.90;3.03;;;0.50;92.60;;;;;;5128159;27;20082;-72
2023/12/03 07:29:54;;;;;;;6.13;2.92;;;0.50;92.60;;;;;;5133180;27;20047;-72
2023/12/03 07:32:20;;;;;;;4.63;2.17;;;0.50;92.60;;;;;;5132989;27;20474;-72
2023/12/03 07:34:45;;;;;;;4.28;1.95;;;0.50;92.60;;;;;;5132924;27;20039;-72
2023/12/03 07:37:12;;;;;;;4.38;2.10;;;0.40;92.60;;;;;;5097717;27;20176;-72
2023/12/03 07:39:39;;;;;;;5.53;2.70;;;0.40;92.60;;;;;;5133065;27;20039;-72
2023/12/03 07:42:05;;;;;;;3.75;2.25;;;0.40;92.70;;;;;;5115170;28;20044;-72
2023/12/03 07:44:30;;;;;;;5.75;2.35;;;0.40;92.70;;;;;;5133294;27;20381;-72
2023/12/03 07:46:56;;;;;;;5.20;2.10;;;0.40;92.70;;;;;;5114415;28;20160;-71
2023/12/03 07:49:22;;;;;;;4.47;2.22;;;0.30;92.60;;;;;;5133410;27;20035;-72
2023/12/03 07:51:48;;;;;;;4.35;1.92;;;0.30;92.70;;;;;;5132866;27;20486;-72
2023/12/03 07:54:14;;;;;;;4.68;2.05;;;0.30;92.70;;;;;;5114651;28;20032;-74
2023/12/03 07:56:40;;;;;;;5.35;2.50;;;0.30;92.70;;;;;;5132797;27;20139;-72
2023/12/03 07:59:07;;;;;;;5.13;2.08;;;0.30;92.70;;;;;;5132957;27;20039;-71
2023/12/03 08:01:34;;;;;;;3.33;1.75;;;0.30;92.70;;;;;;5093876;28;20040;-72
2023/12/03 08:03:59;;;;;;;4.78;2.20;;;0.30;92.70;;;;;;5094408;28;20511;-72
2023/12/03 08:06:26;;;;;;;3.40;1.65;;;0.30;92.70;;;;;;5127165;27;20088;-72
2023/12/03 08:08:53;;;;;;;4.55;1.98;;;0.30;92.70;;;;;;5132401;27;20068;-72
2023/12/03 08:11:20;;;;;;;4.13;1.70;;;0.30;92.70;;;;;;5093744;28;20394;-72
2023/12/03 08:13:46;;;;;;;5.03;1.88;;;0.30;92.70;;;;;;5132435;27;20506;-72
2023/12/03 08:16:12;;;;;;;4.55;2.08;;;0.30;92.70;;;;;;5100873;27;20045;-72
2023/12/03 08:18:38;;;;;;;4.18;1.55;;;0.30;92.70;;;;;;5136181;27;20039;-72
2023/12/03 08:21:04;;;;;;;4.40;1.63;;;0.30;92.60;;;;;;5114904;28;20036;-72
2023/12/03 08:23:32;;;;;;;2.83;1.42;;;0.30;92.60;;;;;;5114001;28;20063;-72
2023/12/03 08:25:59;;;;;;;3.35;1.35;;;0.30;92.60;;;;;;5132559;27;20062;-72
2023/12/03 08:28:25;;;;;;;3.55;1.50;;;0.30;92.70;;;;;;5118152;28;20053;-72
2023/12/03 08:30:50;;;;;;;2.90;1.40;;;0.40;92.60;;;;;;5114027;28;20032;-72
2023/12/03 08:33:16;;;;;;;4.20;1.30;;;0.40;92.60;;;;;;5133061;27;20409;-72
2023/12/03 08:35:43;;;;;;;3.53;1.48;;;0.30;92.60;;;;;;5117348;28;20043;-72
2023/12/03 08:38:09;;;;;;;4.55;2.20;;;0.30;92.60;;;;;;5117703;28;20047;-73
2023/12/03 08:40:34;;;;;;;3.58;1.45;;;0.30;92.60;;;;;;5136073;27;20372;-72
2023/12/03 08:43:00;;;;;;;3.88;1.45;;;0.40;92.60;;;;;;5136095;27;20410;-72
2023/12/03 08:45:26;;;;;;;3.15;1.50;;;0.40;92.60;;;;;;5135534;27;20047;-74
2023/12/03 08:47:52;;;;;;;3.63;1.65;;;0.50;92.60;;;;;;5135446;27;20057;-72
2023/12/03 08:50:18;;;;;;;4.53;1.73;;;0.50;92.50;;;;;;5117147;27;20036;-72
2023/12/03 08:52:44;;;;;;;4.43;2.00;;;0.40;92.50;;;;;;5135939;27;20121;-72
2023/12/03 08:55:09;;;;;;;5.05;1.90;;;0.50;92.50;;;;;;5135600;27;20063;-72
2023/12/03 08:57:36;;;;;;;3.00;1.42;;;0.50;92.40;;;;;;5135803;27;20043;-72
2023/12/03 09:00:07;;;;;;;3.75;1.73;;;0.50;92.40;;;;;;5116848;27;20099;-72
2023/12/03 09:02:33;;;;;;;3.50;1.80;;;0.60;92.40;;;;;;5099790;27;20521;-72
2023/12/03 09:04:59;;;;;;;4.47;2.08;;;0.60;92.30;;;;;;5113952;28;20063;-72
2023/12/03 09:07:25;;;;;;;4.75;2.08;;;0.60;92.30;;;;;;5096586;28;20035;-72
2023/12/03 09:09:51;;;;;;;4.20;1.98;;;0.70;92.30;;;;;;5134706;27;20058;-72
2023/12/03 09:12:17;;;;;;;4.43;2.15;;;0.70;92.20;;;;;;5116644;27;20171;-72
2023/12/03 09:14:43;;;;;;;4.75;2.00;;;0.70;92.20;;;;;;5135409;27;20043;-72
2023/12/03 09:17:09;;;;;;;4.75;1.90;;;0.80;92.20;;;;;;5135229;27;20035;-72
2023/12/03 09:19:35;;;;;;;4.60;1.85;;;0.80;92.10;;;;;;5113171;28;20051;-72
2023/12/03 09:22:00;;;;;;;4.78;1.70;;;0.80;92.10;;;;;;5131600;27;20478;-72
2023/12/03 09:24:26;;;;;;;3.58;1.70;;;0.90;92.10;;;;;;5134369;27;20035;-72
2023/12/03 09:26:52;;;;;;;3.80;1.70;;;0.90;92.00;;;;;;5096113;28;20039;-72
2023/12/03 09:29:18;;;;;;;5.00;1.90;;;0.90;92.00;;;;;;5114302;28;20093;-73
2023/12/03 09:31:44;;;;;;;6.78;2.30;;;1.00;92.00;;;;;;5114593;28;20104;-72
2023/12/03 09:34:09;;;;;;;4.72;2.42;;;0.90;91.90;;;;;;5096282;28;20043;-73
2023/12/03 09:36:35;;;;;;;5.50;2.40;;;0.90;91.90;;;;;;5117285;28;20035;-72
2023/12/03 09:39:01;;;;;;;4.80;2.13;;;1.00;91.90;;;;;;5134636;27;20088;-72
2023/12/03 09:41:30;;;;;;;3.53;1.88;;;1.00;91.90;;;;;;5134648;27;20042;-72
2023/12/03 09:43:59;;;;;;;4.45;1.92;;;1.00;91.90;;;;;;5116546;27;20050;-72
2023/12/03 09:46:30;;;;;;;5.78;2.28;;;1.10;92.20;;;;;;5112657;28;20047;-72
2023/12/03 09:49:00;;;;;;;5.30;2.33;;;1.10;91.90;;;;;;5113700;28;20084;-73
2023/12/03 09:51:28;;;;;;;6.60;3.00;;;1.10;91.80;;;;;;5134436;27;20509;-73
2023/12/03 09:53:58;;;;;;;6.55;2.65;;;1.10;91.80;;;;;;5134789;27;20492;-72
2023/12/03 09:56:25;;;;;;;5.28;2.47;;;1.20;91.80;;;;;;5134519;27;20039;-73
2023/12/03 09:58:52;;;;;;;6.25;2.70;;;1.20;91.70;;;;;;5116013;27;20401;-73
2023/12/03 10:01:19;;;;;;;5.88;2.50;;;1.20;91.70;;;;;;5082481;27;20092;-72
2023/12/03 10:03:45;;;;;;;4.30;2.50;;;1.20;91.60;;;;;;5134590;27;20047;-72
2023/12/03 10:06:11;;;;;;;6.13;2.50;;;1.20;91.60;;;;;;5112443;28;20759;-73
2023/12/03 10:08:41;;;;;;;5.15;2.40;;;1.30;91.60;;;;;;5113589;28;20126;-72
2023/12/03 10:11:10;;;;;;;5.93;2.47;;;1.40;91.60;;;;;;5131148;27;20375;-72
2023/12/03 10:13:36;;;;;;;5.85;2.20;;;1.40;91.60;;;;;;5115697;27;20043;-72
2023/12/03 10:16:02;;;;;;;5.35;2.55;;;1.40;91.50;;;;;;5116151;27;20099;-72
2023/12/03 10:18:28;;;;;;;5.68;2.38;;;1.40;91.50;;;;;;5112164;28;20047;-72
2023/12/03 10:21:07;;;;;;;4.88;2.17;;;1.50;91.50;;;;;;5095136;28;20495;-72
2023/12/03 10:23:34;;;;;;;5.13;2.22;;;1.50;91.50;;;;;;5127550;27;20521;-73
2023/12/03 10:26:11;;;;;;;5.53;2.25;;;1.50;91.40;;;;;;5115319;27;20039;-73
2023/12/03 10:28:39;;;;;;;4.38;1.92;;;1.50;91.40;;;;;;5112849;28;20039;-73
2023/12/03 10:31:06;;;;;;;5.40;2.55;;;1.60;91.40;;;;;;5132450;27;20039;-73
2023/12/03 10:33:32;;;;;;;4.72;2.35;;;1.60;91.40;;;;;;5115459;27;20449;-73
2023/12/03 10:36:04;;;;;;;4.03;1.75;;;1.60;91.40;;;;;;5133956;27;20160;-73
2023/12/03 10:38:45;;;;;;;4.43;2.30;;;1.60;91.30;;;;;;5112240;28;20047;-73
2023/12/03 10:41:14;;;;;;;5.35;2.50;;;1.60;91.30;;;;;;5094878;28;20071;-73
2023/12/03 10:43:42;;;;;;;5.75;2.53;;;1.60;91.30;;;;;;5112005;28;20513;-72
2023/12/03 10:46:10;;;;;;;4.85;2.13;;;1.70;91.30;;;;;;5112125;28;20042;-73
2023/12/03 10:48:36;;;;;;;4.13;2.10;;;1.80;91.20;;;;;;5113406;28;20027;-72
2023/12/03 10:51:05;;;;;;;5.75;2.90;;;1.90;91.20;;;;;;5128818;27;20043;-72
2023/12/03 10:53:32;;;;;;;5.47;2.50;;;2.00;91.10;;;;;;5098789;27;20047;-72
2023/12/03 10:56:02;;;;;;;5.40;2.67;;;2.00;91.00;;;;;;5133522;27;20039;-72
2023/12/03 10:58:29;;;;;;;4.90;2.17;;;2.00;91.00;;;;;;5112601;27;20040;-72
2023/12/03 11:01:04;;;;;;;6.47;2.78;;;2.10;91.00;;;;;;5094755;28;20039;-72
2023/12/03 11:04:08;;;;;;;6.40;3.10;;;2.20;90.90;;;;;;5111562;28;20509;-71
2023/12/03 11:06:36;;;;;;;4.47;2.20;;;2.20;90.90;;;;;;5128622;27;20083;-72
2023/12/03 11:09:01;;;;;;;6.97;2.47;;;2.20;90.80;;;;;;5115118;27;20031;-71
2023/12/03 11:11:29;;;;;;;5.75;2.53;;;2.20;90.80;;;;;;5115451;27;20107;-71
2023/12/03 11:13:56;;;;;;;4.82;2.40;;;2.30;90.80;;;;;;5115170;28;20453;-72
2023/12/03 11:16:25;;;;;;;4.03;1.85;;;2.20;90.80;;;;;;5112832;28;20063;-71
2023/12/03 11:19:16;;;;;;;5.43;2.40;;;2.30;90.80;;;;;;5133536;27;20039;-72
2023/12/03 11:21:59;;;;;;;4.63;2.03;;;2.30;90.80;;;;;;5115742;27;20039;-71
2023/12/03 11:24:46;;;;;;;5.25;2.30;;;2.30;90.80;;;;;;5115064;28;20039;-72
2023/12/03 11:27:12;;;;;;;4.78;2.10;;;2.30;90.80;;;;;;5133854;27;20046;-72
2023/12/03 11:29:48;;;;;;;5.20;2.10;;;2.20;90.80;;;;;;5133768;27;20092;-71
2023/12/03 11:32:14;;;;;;;4.05;1.88;;;2.30;90.80;;;;;;5108401;28;20040;-71
2023/12/03 11:34:40;;;;;;;3.25;1.50;;;2.30;90.80;;;;;;5126834;27;20039;-71
2023/12/03 11:37:09;;;;;;;3.60;1.70;;;2.30;90.70;;;;;;5114607;27;20164;-71
2023/12/03 11:39:41;;;;;;;4.30;2.20;;;2.40;90.70;;;;;;5133521;27;20068;-71
2023/12/03 11:42:12;;;;;;;4.30;1.80;;;2.40;90.70;;;;;;5114513;27;20058;-72
2023/12/03 11:44:38;;;;;;;4.93;1.80;;;2.60;90.70;;;;;;5114353;28;20039;-73
2023/12/03 11:47:06;;;;;;;3.30;1.58;;;2.60;90.70;;;;;;5133124;27;20035;-72
2023/12/03 11:49:35;;;;;;;4.22;1.85;;;2.60;90.60;;;;;;5118032;27;20050;-71
2023/12/03 11:52:03;;;;;;;4.32;1.90;;;2.70;90.50;;;;;;5136417;27;20091;-72
2023/12/03 11:54:52;;;;;;;3.05;1.35;;;2.70;90.40;;;;;;5136965;27;20092;-72
2023/12/03 11:57:18;;;;;;;3.50;1.50;;;2.70;90.40;;;;;;5083052;28;20089;-71
2023/12/03 11:59:44;;;;;;;3.60;1.60;;;2.80;90.40;;;;;;5097411;28;20486;-71
2023/12/03 12:02:10;;;;;;;4.97;2.22;;;2.90;90.40;;;;;;5115840;28;20063;-71
2023/12/03 12:04:36;;;;;;;2.65;1.52;;;2.90;90.30;;;;;;5135684;27;20092;-71
2023/12/03 12:07:18;;;;;;;4.78;2.22;;;2.90;90.20;;;;;;5101381;27;20031;-71
2023/12/03 12:09:46;;;;;;;4.25;2.20;;;3.00;90.20;;;;;;5132448;27;20031;-71
2023/12/03 12:12:13;;;;;;;4.93;2.33;;;3.00;90.10;;;;;;5100589;27;20497;-72
2023/12/03 12:14:39;;;;;;;4.03;1.80;;;3.00;90.10;;;;;;5136023;27;20095;-71
2023/12/03 12:17:09;;;;;;;6.20;2.50;;;3.00;90.10;;;;;;5135975;27;20035;-71
2023/12/03 12:19:34;;;;;;;5.97;2.35;;;3.00;90.10;;;;;;5135951;27;20447;-70
2023/12/03 12:22:00;;;;;;;4.43;2.40;;;3.00;90.10;;;;;;5136088;27;20035;-71
2023/12/03 12:24:27;;;;;;;4.00;1.85;;;3.00;90.10;;;;;;5135922;27;20509;-70
2023/12/03 12:26:54;;;;;;;5.55;2.47;;;3.00;90.10;;;;;;5135945;27;20092;-71
2023/12/03 12:29:22;;;;;;;8.63;2.97;;;3.10;90.00;;;;;;5114192;28;20059;-69
2023/12/03 12:31:48;;;;;;;6.20;2.90;;;3.10;90.00;;;;;;5114258;28;20123;-71
2023/12/03 12:34:14;;;;;;;5.93;2.85;;;3.10;90.00;;;;;;5114227;28;20108;-70
2023/12/03 12:36:43;;;;;;;6.25;2.88;;;3.10;89.80;;;;;;5113827;28;20126;-70
2023/12/03 12:39:25;;;;;;;4.97;2.42;;;3.00;89.80;;;;;;5116152;27;20479;-72
2023/12/03 12:41:50;;;;;;;;;;;3.10;89.80;;;;;;5135967;27;20043;-71
2023/12/03 12:44:17;;;;;;;5.07;2.35;;;3.10;89.70;;;;;;5135622;27;19934;-71
2023/12/03 12:46:59;;;;;;;4.00;2.05;;;3.20;89.80;;;;;;5117108;27;20051;-71
2023/12/03 12:49:24;;;;;;;6.05;2.30;;;3.20;89.70;;;;;;5117586;27;20035;-72
2023/12/03 12:51:50;;;;;;;6.15;2.60;;;3.20;89.70;;;;;;5117165;28;20497;-71
2023/12/03 12:54:16;;;;;;;4.25;1.92;;;3.20;89.70;;;;;;5135563;27;20035;-71
2023/12/03 12:56:43;;;;;;;4.15;1.98;;;3.20;89.70;;;;;;5135810;27;20406;-71